Terminal Aerodrome Forecast
Issued by NWS Cleveland, OH

Home | Current Version | Previous Version | Text Only | Print | Product List | Glossary Off
Versions: 1 2 3 4 5 6 7 8 9 10 11 12 13

000
FTUS41 KCLE 201700
TAFMFD
TAF
KMFD 201726Z 2018/2118 02008KT P6SM SCT035 OVC120
      TEMPO 2018/2019 BKN025
     FM210200 VRB03KT P6SM SCT050 OVC100
     FM210700 01004KT P6SM VCSH OVC050
     FM211200 36008KT P6SM OVC035
     FM211700 33008KT P6SM OVC050=

USA.gov is the U.S. government's official web portal to all federal, state and local government web resources and services.